Extreme weather reports worldwide

Low visibility

Station
 
Location
 
Name
 
Wind
Knots
Gust
Knots
Vis
SM
Temp/Dew
C
Baro
inHg
METAR
 
PDP SULS Punta del Este, UY Capitan Corbeta CA Curbelo International Airport 2 0.03 5/4 30.44 SULS 011200Z VRB02KT 0050 FG NSC 05/04 Q1031
VEY BIVM Vestmannaeyjar, IS Vestmannaeyjar Airport 7 0.07 12/11 29.85 BIVM 011200Z 11007KT 0120 -RA FG OVC002 12/11 Q1011
MJZ UERR Mirny, RU Mirny Airport 6 0.12 20/8 29.91 UERR 011200Z 05003MPS 0200 HZ VV003 20/08 Q1013 R25/CLRD60 NOSIG RMK QBB090 QFE729/0972
CPO SCAT Copiapo, CL Desierto de Atacama Airport 8 0.12 6/6 30.00 SCAT 011200Z AUTO 04008KT 0200 R17/0250N FG VV001 06/06 Q1016
RIA SBSM Santa Maria, BR Santa Maria Airport 2 0.12 6/6 30.41 SBSM 011200Z VRB02KT 0200 R29/0375 R11/0800 FG BKN002 06/06 Q1030

Station
 
Location
 
Name
 
Wind
Knots
Gust
Knots
Vis
SM
Temp/Dew
C
Baro
inHg
METAR
 
SBCO Porto Alegre, BR Canoas Air Force Base 2 0.12 8/8 30.41 SBCO 011200Z VRB02KT 0200 R13/0400 R31/0400 FG VV002 08/08 Q1030
TIJ MMTJ Tijuana, MX General Abelardo L. Rodríguez International Airport 0 0.13 16/16 30.05 MMTJ 011146Z 00000KT 1/8SM FG VV002 16/16 A3005 RMK SLP171 54000 918 8////
SCIC Curico, CL General Freire Airport 5 0.16 3/3 30.18 SCIC 011200Z AUTO 19005KT 160V220 0250 R/////// FG VV002 03/03 Q1022
POA SBPA Porto Alegre, BR Salgado Filho Airport 2 0.16 9/9 30.41 SBPA 011200Z VRB02KT 0250 R11/0375 R29/0400 FG VV002 09/09 Q1030
ZOS SCJO Osorno, CL Cañal Bajo Carlos - Hott Siebert Airport 0 0.19 -1/-2 30.35 SCJO 011207Z AUTO 00000KT 0300 FG VV002 M01/M02 Q1028
STJ KSTJ St Joseph, US Rosecrans Memorial Airport 0 0.25 16/16 30.14 KSTJ 011230Z AUTO 00000KT 1/4SM FG VV010 17/17 A3014 RMK AO2 T01670167 RVRNO $
KQFV 0.25 23/23 29.67 KQFV 011230Z AUTO M0400 SHRA SCT031 OVC100 23/23 A2967 RMK / A02
CMI KCMI Champaign/Urbana, US University of Illinois Willard Airport 6 0.25 16/16 30.01 KCMI 011226Z 26006KT 1/4SM R32R/1400V2200FT FG VV002 17/16 A3001 RMK AO2 TWR VIS 1/2 T01670161 $
DZO SUDU Durazno, UY Santa Bernardina International Airport 5 0.25 2/2 30.44 SUDU 011218Z 11005KT 0400 FG BKN002 02/02 Q1031
KVTP 0 0.25 7/7 30.65 KVTP 011215Z AUTO 00000KT M1/4SM DZ OVC002 07/07 A3065 RMK AO2
KMYZ Marysville, US Marysville Municipal Airport 3 0.25 16/16 30.19 KMYZ 011215Z AUTO 32003KT M1/4SM FG OVC005 16/16 A3019 RMK AO2
KMYP 17 0.25 6/6 30.85 KMYP 011215Z AUTO 07017KT M1/4SM UP OVC001 06/06 A3085 RMK AO2
K8A0 3 0.25 22/22 30.03 K8A0 011215Z AUTO 33003KT M1/4SM OVC002 22/22 A3003 RMK AO2
NKX KNKX San Diego, US Miramar Marine Corps Air Station - Mitscher Field 4 0.25 16/16 30.03 KNKX 011207Z 31004KT 1/4SM FG VV001 16/16 A3003 RMK AO2 T01610161 $
YDL CYDL Dease Lake, CA Dease Lake Airport 6 0.25 10/10 30.17 CYDL 011203Z AUTO 08006KT 1/4SM FG BKN001 BKN100 10/10 A3017 RMK SLP226
XGR CYLU Kangiqsualujjuaq, CA Kangiqsualujjuaq (Georges River) Airport 7 0.25 5/5 29.56 CYLU 011200Z 33007KT 1/4SM -DZ FG VV002 05/05 A2956 RMK FG8 LAST STFD OBS/NEXT 021200 UTC SLP014
YGL CYGL La Grande Rivière, CA La Grande Rivière Airport 9 16 0.25 7/7 29.87 CYGL 011200Z 29009G16KT 1/4SM -DZ FG VV003 07/07 A2987 RMK FG8 SLP124
NRS KNRS Imperial Beach, US Naval Outlying Field Imperial Beach (Ream Field) 0.25 / 30.04 KNRS 011156Z AUTO 1/4SM FG VV002 A3004 RMK AO2 SLP173 52007 $
KSCF 19 26 0.25 26/24 30.06 KSCF 011155Z AUTO 12019G26KT 1/4SM FG BKN003 OVC008 26/24 A3006 RMK A01
UIN KUIN Quincy, US Quincy Regional Baldwin Field 8 0.25 17/16 30.04 KUIN 011154Z AUTO 23008KT 1/4SM FG VV002 17/17 A3004 RMK AO2 SLP170 T01720167 10172 20167 53008 PWINO $
SDM KSDM San Diego, US Brown Field Municipal Airport 0 0.25 16/13 30.03 KSDM 011153Z AUTO 00000KT 1/4SM HZ VV001 17/14 A3003 RMK AO2 SLP163 T01670139 10194 20167 53002
KOVS Boscobel, US Boscobel Airport 0 0.25 16/16 30.06 KOVS 011153Z AUTO 00000KT M1/4SM FG VV002 17/16 A3006 RMK AO2 SLP179 70002 T01670161 10189 20161 53016
YPR CYPR Prince Rupert, CA Prince Rupert Airport 2 0.38 13/12 30.16 CYPR 011218Z AUTO VRB02KT 3/8SM FG VV002 13/12 A3016 RMK SLP214
YPA CYPA Prince Albert, CA Prince Albert Glass Field 0 0.38 10/10 30.27 CYPA 011200Z 00000KT 3/8SM R08/3500VP6000FT/N FG FEW002 BKN250 10/10 A3027 RMK SF2CI3 VIS SW 5 SLP258
WAP SCAP Alto Palena, CL Alto Palena Airport 1 0.4 -4/-5 30.38 SCAP 011200Z AUTO VRB01KT 0650 BR ////// M04/M05 Q1029
SKD UTSS Samarkand, UZ Samarkand Airport 22 34 0.43 30/12 29.68 UTSS 011200Z 12022G34KT 0700 R09/0700 +DS VV008 30/12 Q1005 R09/CLRD70 NOSIG
AOJ RJSA Aomori, JP Aomori Airport 2 0.5 22/22 29.65 RJSA 011216Z VRB02KT 0800 R24/0600V1400N FG BKN001 BKN002 22/22 Q1004 RMK 5ST001 7ST002 A2967
KTIP Rantoul, US Rantoul National Avn Center-Frank Elliot field 7 0.5 17/16 30.00 KTIP 011215Z AUTO 28007KT 1/2SM FG OVC003 17/17 A3000 RMK AO2 T01700168
STK KSTK Sterling, US Sterling Municipal Airport 0.5 11/11 30.37 KSTK 011215Z 1/2SM FG BKN001 BKN055 11/11 A3037 RMK AO2
KM02 9 0.5 21/21 30.00 KM02 011215Z AUTO 02009KT 1/2SM FG OVC003 21/21 A3000 RMK A01
KIJX Jacksonville, US Jacksonville Municipal Airport 0 0.5 17/17 30.05 KIJX 011215Z AUTO 00000KT 1/2SM FG OVC002 18/18 A3005 RMK AO2 T01750175
K4S1 4 0.5 11/10 30.01 K4S1 011215Z AUTO 18004KT 1/2SM +RA OVC002 11/10 A3001 RMK AO2
MYF KMYF San Diego, US Montgomery-Gibbs Executive Airport 4 0.5 16/15 30.03 KMYF 011210Z AUTO 33004KT 1/2SM FG VV002 17/16 A3003 RMK AO2 T01670156
YVM CYVM Qikiqtarjuaq, CA Qikiqtarjuaq Airport 6 0.5 0/0 29.79 CYVM 011200Z 04006KT 1/2SM FG VV003 00/00 A2979 RMK FG8 SLP089
SZL KSZL Knob Noster, US Whiteman Air Force Base 4 0.5 19/18 30.07 KSZL 011156Z 29004KT 1/2SM FG VV002 19/18 A3007 RMK AO2A SLPNO 70023 52007 $
LIMH IT Pian Rosà 4 0.5 0/0 30.06 LIMH 011155Z 26004KT 0800 -SN FG VV/// 00/M00 Q1018 RMK MON INVIS VAL INVIS VIS MIN 0800
STG PAPB St George, US St George Airport 12 0.5 10/10 29.61 PAPB 011153Z AUTO 17012KT 1/2SM FG VV002 11/11 A2961 RMK AO2 SLP015 70048 T01060106 10106 20106 58007 TSNO
CLD KCRQ Carlsbad, US Mc Clellan-Palomar Airport 0 0.5 16/15 30.02 KCRQ 011153Z AUTO 00000KT 1/2SM R24/2600VP6000FT FG VV002 16/16 A3002 RMK AO2 SLP163 T01610156 10183 20161 53005
PKC UHPP Petropavlovsk-Kamchatsky, RU Yelizovo Airport 4 0.56 12/12 29.73 UHPP 011200Z 01002MPS 0900 0400N R34/1200U PRFG BKN002 12/12 Q1007 R34L/290250 NOSIG RMK QFE752/1002
LIVP 6 0.56 9/8 29.85 LIVP 011155Z 21006KT 0900 FG VV/// 09/08 Q1011 RMK MON INVIS VAL INVIS VIS MIN 0900
SCSN Santo Domingo, CL Santo Domingo Airport 3 0.62 3/3 30.15 SCSN 011200Z 11003KT 080V150 1000 BR NSC 03/03 Q1021
YAMB AU RAAF Base Amberley 5 0.75 14/14 29.91 YAMB 011230Z AUTO 20005KT 1200 BR NCD 14/14 Q1013
FLP KFLP Flippin, US Marion County Regional Airport 3 0.75 22/21 30.08 KFLP 011229Z AUTO 19003KT 3/4SM +TSRA BR SCT012 BKN018 OVC055 22/21 A3008 RMK AO2 LTG DSNT E AND SW AND W P0020
KPVG Norfolk, US Hampton Roads Executive Airport 3 0.75 23/23 29.89 KPVG 011228Z AUTO 32003KT 3/4SM BR FEW027 BKN037 OVC065 23/23 A2989 RMK AO2 TSE02 RVRNO PNO $
PHD KPHD New Philadelphia, US Harry Clever Field 0 0.75 16/16 29.91 KPHD 011226Z AUTO 00000KT 3/4SM BR VV002 16/16 A2991 RMK AO2 T01610161